Time;durP1;ratioP1;P1;durP2;ratioP2;P2;SDS_P1;SDS_P2;PMS_P1;PMS_P2;Temp;Humidity;BMP_temperature;BMP_pressure;BME280_temperature;BME280_humidity;BME280_pressure;Samples;Min_cycle;Max_cycle;Signal;HPM_P1;HPM_P2
2021/12/19 00:02:06;;;;;;;1.20;1.20;;;16.70;68.10;;;;;;5050692;28;44182;-76
2021/12/19 00:04:43;;;;;;;1.20;1.20;;;16.70;68.30;;;;;;5068528;28;44055;-75
2021/12/19 00:09:57;;;;;;;0.97;0.97;;;16.90;67.50;;;;;;5043650;28;43803;-76
2021/12/19 00:12:25;;;;;;;1.20;1.20;;;16.90;67.30;;;;;;5044418;28;43910;-75
2021/12/19 00:14:53;;;;;;;1.13;1.13;;;16.90;67.50;;;;;;5043691;28;45809;-74
2021/12/19 00:17:21;;;;;;;1.00;1.00;;;16.80;67.60;;;;;;5062139;28;43834;-75
2021/12/19 00:19:50;;;;;;;1.10;1.10;;;16.80;67.80;;;;;;5061551;28;43394;-76
2021/12/19 00:22:29;;;;;;;1.13;1.13;;;16.70;67.80;;;;;;5063862;28;43973;-74
2021/12/19 00:24:57;;;;;;;1.30;1.30;;;16.70;68.00;;;;;;5067906;28;43929;-75
2021/12/19 00:27:25;;;;;;;1.10;1.10;;;16.70;68.10;;;;;;5049974;28;44918;-75
2021/12/19 00:29:54;;;;;;;1.20;1.20;;;16.60;68.10;;;;;;5068396;28;43981;-75
2021/12/19 00:32:22;;;;;;;1.10;1.10;;;16.60;68.10;;;;;;5050391;28;44025;-75
2021/12/19 00:34:51;;;;;;;1.40;1.40;;;16.60;68.30;;;;;;5068190;28;44280;-75
2021/12/19 00:37:20;;;;;;;1.17;1.17;;;16.60;68.30;;;;;;5049843;28;43993;-75
2021/12/19 00:39:48;;;;;;;1.10;1.10;;;16.60;68.30;;;;;;5067927;28;43355;-75
2021/12/19 00:42:26;;;;;;;1.10;1.10;;;16.60;68.50;;;;;;5068258;28;44110;-75
2021/12/19 00:44:54;;;;;;;1.00;1.00;;;16.70;68.40;;;;;;5049472;28;45787;-75
2021/12/19 00:47:22;;;;;;;1.00;1.00;;;16.80;67.90;;;;;;5068178;28;43964;-75
2021/12/19 00:49:52;;;;;;;0.90;0.90;;;17.00;67.40;;;;;;5068001;28;43984;-76
2021/12/19 00:52:41;;;;;;;1.23;1.23;;;17.10;67.00;;;;;;5067812;28;43915;-75
2021/12/19 00:55:09;;;;;;;1.10;1.10;;;17.10;66.60;;;;;;5049289;28;47236;-75
2021/12/19 00:57:37;;;;;;;1.10;1.10;;;17.10;66.60;;;;;;5060800;28;43952;-75
2021/12/19 01:00:07;;;;;;;1.10;1.10;;;17.00;66.80;;;;;;5060896;28;44003;-75
2021/12/19 01:02:35;;;;;;;1.00;1.00;;;17.00;67.10;;;;;;5060161;28;44170;-75
2021/12/19 01:05:05;;;;;;;1.03;1.03;;;16.90;67.40;;;;;;5060738;28;45012;-75
2021/12/19 01:07:33;;;;;;;0.87;0.87;;;16.80;67.50;;;;;;5067330;28;43760;-75
2021/12/19 01:10:01;;;;;;;1.20;1.20;;;16.80;67.70;;;;;;5067657;28;43367;-76
2021/12/19 01:12:31;;;;;;;1.10;1.10;;;16.70;67.80;;;;;;5067859;28;43997;-76
2021/12/19 01:14:59;;;;;;;0.90;0.90;;;16.70;67.90;;;;;;5048955;28;44123;-75
2021/12/19 01:17:27;;;;;;;1.00;1.00;;;16.70;68.00;;;;;;5049008;28;44056;-76
2021/12/19 01:19:56;;;;;;;1.00;1.00;;;16.60;68.00;;;;;;5067460;28;43446;-75
2021/12/19 01:22:25;;;;;;;0.90;0.90;;;16.60;68.20;;;;;;5049554;28;44040;-75
2021/12/19 01:24:53;;;;;;;0.90;0.90;;;16.70;68.10;;;;;;5067111;28;43941;-75
2021/12/19 01:27:22;;;;;;;0.90;0.90;;;16.80;67.70;;;;;;5048768;28;44469;-75
2021/12/19 01:29:49;;;;;;;1.00;1.00;;;16.90;67.40;;;;;;5066820;28;43909;-75
2021/12/19 01:32:17;;;;;;;0.80;0.80;;;16.90;67.40;;;;;;5049409;28;43999;-75
2021/12/19 01:34:46;;;;;;;0.83;0.83;;;16.80;67.50;;;;;;5066728;28;43925;-75
2021/12/19 01:37:14;;;;;;;1.00;1.00;;;16.80;67.70;;;;;;5067128;28;43769;-75
2021/12/19 01:39:43;;;;;;;0.90;0.90;;;16.70;67.70;;;;;;5067189;28;43933;-75
2021/12/19 01:42:12;;;;;;;1.03;1.03;;;16.70;67.90;;;;;;5067305;28;43967;-75
2021/12/19 01:44:40;;;;;;;0.87;0.87;;;16.70;68.00;;;;;;5048457;28;44964;-75
2021/12/19 01:47:10;;;;;;;0.70;0.70;;;16.60;68.10;;;;;;5048730;28;44719;-75
2021/12/19 01:49:38;;;;;;;0.80;0.80;;;16.60;68.20;;;;;;5066887;28;43813;-76
2021/12/19 01:52:06;;;;;;;0.87;0.87;;;16.60;68.30;;;;;;5067404;28;43963;-74
2021/12/19 01:54:34;;;;;;;0.60;0.60;;;16.60;68.30;;;;;;5066620;28;43983;-75
2021/12/19 01:57:04;;;;;;;0.90;0.90;;;16.60;68.30;;;;;;5066362;28;44950;-74
2021/12/19 01:59:32;;;;;;;0.70;0.70;;;16.60;68.40;;;;;;5066551;28;43968;-74
2021/12/19 02:02:00;;;;;;;0.90;0.90;;;16.60;68.50;;;;;;5048797;28;43943;-75
2021/12/19 02:04:30;;;;;;;1.00;1.00;;;16.60;68.30;;;;;;5066287;28;44211;-75
2021/12/19 02:07:01;;;;;;;0.83;0.83;;;16.80;68.00;;;;;;5048194;28;45921;-75
2021/12/19 02:09:29;;;;;;;0.70;0.70;;;16.90;67.50;;;;;;5048334;28;43979;-75
2021/12/19 02:11:57;;;;;;;0.80;0.80;;;17.00;66.90;;;;;;5067254;28;43583;-75
2021/12/19 02:14:26;;;;;;;0.80;0.80;;;17.10;66.60;;;;;;5066269;28;43744;-75
2021/12/19 02:16:56;;;;;;;0.70;0.70;;;17.10;66.40;;;;;;5066729;28;43840;-75
2021/12/19 02:19:25;;;;;;;0.77;0.77;;;17.10;66.70;;;;;;5069846;28;44118;-75
2021/12/19 02:21:54;;;;;;;0.90;0.90;;;17.00;67.00;;;;;;5067137;28;44248;-75
2021/12/19 02:24:22;;;;;;;1.00;1.00;;;16.90;67.20;;;;;;5066364;28;43956;-75
2021/12/19 02:26:50;;;;;;;1.00;1.00;;;16.80;67.30;;;;;;5066474;28;44057;-74
2021/12/19 02:29:18;;;;;;;0.90;0.90;;;16.80;67.50;;;;;;5066261;28;43309;-75
2021/12/19 02:31:46;;;;;;;0.80;0.80;;;16.70;67.60;;;;;;5066790;28;43972;-75
2021/12/19 02:34:18;;;;;;;0.80;0.80;;;16.70;67.80;;;;;;5066336;28;43620;-75
2021/12/19 02:36:58;;;;;;;0.70;0.70;;;16.70;67.90;;;;;;5066377;28;43949;-75
2021/12/19 02:39:50;;;;;;;0.90;0.90;;;16.70;68.00;;;;;;5066580;28;43430;-75
2021/12/19 02:48:11;;;;;;;0.80;0.80;;;16.90;67.60;;;;;;5069723;28;44080;-77
2021/12/19 02:50:44;;;;;;;0.80;0.80;;;16.90;67.30;;;;;;5051617;28;44012;-75
2021/12/19 02:53:12;;;;;;;0.77;0.77;;;16.80;67.30;;;;;;5070522;28;44164;-75
2021/12/19 02:55:43;;;;;;;0.80;0.80;;;16.80;67.50;;;;;;5051087;28;45757;-75
2021/12/19 02:58:11;;;;;;;0.90;0.90;;;16.80;67.70;;;;;;5068750;28;43979;-75
2021/12/19 03:00:42;;;;;;;0.80;0.80;;;16.70;67.80;;;;;;5069949;28;43905;-75
2021/12/19 03:03:10;;;;;;;0.70;0.70;;;16.70;67.90;;;;;;5051411;28;44232;-75
2021/12/19 03:05:38;;;;;;;0.63;0.63;;;16.60;67.90;;;;;;5069086;28;44108;-75
2021/12/19 03:08:08;;;;;;;0.73;0.73;;;16.60;68.00;;;;;;5069332;28;43915;-75
2021/12/19 03:11:08;;;;;;;0.77;0.77;;;16.60;68.10;;;;;;5069686;28;43940;-75
2021/12/19 03:17:56;;;;;;;0.77;0.77;;;16.60;68.20;;;;;;5069899;28;43733;-75
2021/12/19 03:19:11;;;;;;;0.80;0.80;;;16.60;68.30;;;;;;5050889;28;44717;-75
2021/12/19 03:21:41;;;;;;;0.80;0.80;;;16.60;68.40;;;;;;5069139;28;44047;-75
2021/12/19 03:24:09;;;;;;;0.70;0.70;;;16.70;68.20;;;;;;5069258;28;44228;-76
2021/12/19 03:26:37;;;;;;;0.90;0.90;;;16.80;67.80;;;;;;5068878;28;43941;-76
2021/12/19 03:29:06;;;;;;;0.90;0.90;;;17.00;67.30;;;;;;5068971;28;43892;-76
2021/12/19 03:31:34;;;;;;;0.90;0.90;;;17.10;66.90;;;;;;5068944;28;43933;-76
2021/12/19 03:34:02;;;;;;;0.80;0.80;;;17.10;66.60;;;;;;5051241;28;43625;-76
2021/12/19 03:36:31;;;;;;;0.80;0.80;;;17.00;66.60;;;;;;5050798;28;45576;-76
2021/12/19 03:39:03;;;;;;;0.90;0.90;;;17.00;66.90;;;;;;5050654;28;43412;-76
2021/12/19 03:41:34;;;;;;;0.70;0.70;;;16.90;67.10;;;;;;5069249;28;43905;-76
2021/12/19 03:44:03;;;;;;;0.70;0.70;;;16.80;67.30;;;;;;5050839;28;44019;-76
2021/12/19 03:46:32;;;;;;;0.80;0.80;;;16.80;67.60;;;;;;5068548;28;44852;-76
2021/12/19 03:49:00;;;;;;;0.90;0.90;;;16.70;67.70;;;;;;5068772;28;43902;-76
2021/12/19 03:51:28;;;;;;;0.80;0.80;;;16.70;67.90;;;;;;5050581;28;44290;-76
2021/12/19 03:53:56;;;;;;;0.70;0.70;;;16.60;67.90;;;;;;5050052;28;43807;-76
2021/12/19 03:56:24;;;;;;;0.80;0.80;;;16.60;68.00;;;;;;5068358;28;44121;-76
2021/12/19 03:58:53;;;;;;;0.60;0.60;;;16.60;68.10;;;;;;5068388;28;43967;-76
2021/12/19 04:01:21;;;;;;;0.70;0.70;;;16.70;68.20;;;;;;5068880;28;43861;-76
2021/12/19 04:03:51;;;;;;;0.70;0.70;;;16.80;67.90;;;;;;5050959;28;44165;-76
2021/12/19 04:06:19;;;;;;;0.77;0.77;;;16.80;67.50;;;;;;5068242;28;43532;-76
2021/12/19 04:08:47;;;;;;;0.67;0.67;;;16.80;67.30;;;;;;5068529;28;43834;-76
2021/12/19 04:11:16;;;;;;;0.73;0.73;;;16.80;67.50;;;;;;5068572;28;43889;-76
2021/12/19 04:13:44;;;;;;;0.80;0.80;;;16.70;67.60;;;;;;5050522;28;43944;-76
2021/12/19 04:16:12;;;;;;;0.80;0.80;;;16.70;67.80;;;;;;5049904;28;46103;-76
2021/12/19 04:18:40;;;;;;;0.80;0.80;;;16.70;67.90;;;;;;5049925;28;45951;-76
2021/12/19 04:21:09;;;;;;;0.77;0.77;;;16.60;67.90;;;;;;5068709;28;43896;-76
2021/12/19 04:23:37;;;;;;;0.90;0.90;;;16.60;68.00;;;;;;5050290;28;44069;-76
2021/12/19 04:26:05;;;;;;;0.70;0.70;;;16.60;68.10;;;;;;5049304;28;45626;-76
2021/12/19 04:28:33;;;;;;;0.70;0.70;;;16.60;68.20;;;;;;5068319;28;43925;-76
2021/12/19 04:31:03;;;;;;;0.80;0.80;;;16.60;68.20;;;;;;5049806;28;43846;-76
2021/12/19 04:33:32;;;;;;;2.30;0.80;;;16.60;68.30;;;;;;5068441;28;44197;-76
2021/12/19 04:36:03;;;;;;;0.77;0.77;;;16.50;68.20;;;;;;5067770;28;43751;-76
2021/12/19 04:41:51;;;;;;;0.70;0.70;;;16.70;68.20;;;;;;5049570;28;43953;-76
2021/12/19 04:56:02;;;;;;;0.60;0.60;;;17.10;66.50;;;;;;4986104;28;44162;-75
2021/12/19 05:01:34;;;;;;;0.70;0.70;;;16.90;67.10;;;;;;5049207;28;43859;-75
2021/12/19 05:04:10;;;;;;;0.60;0.60;;;16.80;67.30;;;;;;5067636;28;43890;-75
2021/12/19 05:14:01;;;;;;;0.80;0.80;;;16.80;67.60;;;;;;5067254;28;43944;-75
2021/12/19 05:15:10;;;;;;;0.80;0.80;;;16.60;67.80;;;;;;5067526;28;43921;-75
2021/12/19 05:17:39;;;;;;;0.70;0.70;;;16.60;68.00;;;;;;5067831;28;43987;-75
2021/12/19 05:20:16;;;;;;;0.60;0.60;;;16.70;67.90;;;;;;5067304;28;44178;-76
2021/12/19 05:22:48;;;;;;;0.67;0.67;;;16.80;67.50;;;;;;5067622;28;43888;-75
2021/12/19 05:25:17;;;;;;;0.70;0.70;;;16.90;67.30;;;;;;5067363;28;43355;-75
2021/12/19 05:27:49;;;;;;;0.70;0.70;;;16.80;67.10;;;;;;5049301;28;44045;-75
2021/12/19 05:30:18;;;;;;;0.70;0.70;;;16.80;67.40;;;;;;5067347;28;45074;-75
2021/12/19 05:32:47;;;;;;;0.60;0.60;;;16.80;67.50;;;;;;5048771;28;44871;-75
2021/12/19 05:35:21;;;;;;;0.80;0.80;;;16.70;67.60;;;;;;5048733;28;44031;-76
2021/12/19 05:46:07;;;;;;;0.70;0.70;;;16.60;68.00;;;;;;5058757;28;43988;-76
2021/12/19 05:48:35;;;;;;;0.70;0.70;;;16.60;68.80;;;;;;5059279;28;43979;-76
2021/12/19 05:51:04;;;;;;;0.80;0.80;;;16.60;68.20;;;;;;5060338;28;43985;-75
2021/12/19 05:53:32;;;;;;;0.60;0.60;;;16.50;68.20;;;;;;5048379;28;45933;-75
2021/12/19 05:56:00;;;;;;;0.70;0.70;;;16.50;68.20;;;;;;5041872;28;44132;-75
2021/12/19 05:58:29;;;;;;;0.70;0.70;;;16.60;68.30;;;;;;5042210;28;43940;-75
2021/12/19 06:01:04;;;;;;;0.60;0.60;;;16.70;68.00;;;;;;5066906;28;44611;-75
2021/12/19 06:03:32;;;;;;;0.60;0.60;;;16.80;67.50;;;;;;5067004;28;44170;-75
2021/12/19 06:06:03;;;;;;;0.60;0.60;;;17.00;67.20;;;;;;5048371;28;43980;-75
2021/12/19 06:08:31;;;;;;;0.60;0.60;;;17.10;66.70;;;;;;5048963;28;43595;-75
2021/12/19 06:10:59;;;;;;;0.80;0.80;;;17.10;66.50;;;;;;5048193;28;45439;-76
2021/12/19 06:13:28;;;;;;;0.70;0.70;;;17.00;66.40;;;;;;5066585;28;44194;-76
2021/12/19 06:15:57;;;;;;;0.70;0.70;;;17.00;66.80;;;;;;5049139;28;43664;-75
2021/12/19 06:18:25;;;;;;;0.80;0.80;;;16.90;67.00;;;;;;5073747;28;44227;-75
2021/12/19 06:20:54;;;;;;;0.70;0.70;;;16.80;67.30;;;;;;5055188;28;46630;-75
2021/12/19 06:23:22;;;;;;;0.57;0.57;;;16.70;67.50;;;;;;5073283;28;43904;-75
2021/12/19 06:25:50;;;;;;;0.60;0.60;;;16.70;67.70;;;;;;5073163;28;43951;-75
2021/12/19 06:28:18;;;;;;;0.60;0.60;;;16.60;67.70;;;;;;5073543;28;44233;-75
2021/12/19 06:30:48;;;;;;;0.57;0.57;;;16.60;68.00;;;;;;5054748;28;45641;-75
2021/12/19 06:33:16;;;;;;;0.60;0.60;;;16.60;68.10;;;;;;5072758;28;43411;-74
2021/12/19 06:35:44;;;;;;;0.70;0.70;;;16.50;68.10;;;;;;5054760;28;44077;-75
2021/12/19 06:38:14;;;;;;;0.70;0.70;;;16.60;68.30;;;;;;5073476;28;44202;-75
2021/12/19 06:40:42;;;;;;;0.50;0.50;;;16.60;68.00;;;;;;5072927;28;43604;-74
2021/12/19 06:43:10;;;;;;;0.70;0.70;;;16.70;67.60;;;;;;5072853;28;43859;-74
2021/12/19 06:45:42;;;;;;;0.50;0.50;;;16.80;67.40;;;;;;5072937;28;43414;-75
2021/12/19 06:48:11;;;;;;;0.60;0.60;;;16.70;67.40;;;;;;5073455;28;43938;-76
2021/12/19 06:50:39;;;;;;;0.70;0.70;;;16.70;67.60;;;;;;5072403;28;43862;-75
2021/12/19 06:53:07;;;;;;;0.57;0.57;;;16.70;67.70;;;;;;5072592;28;43499;-75
2021/12/19 06:55:37;;;;;;;0.70;0.70;;;16.60;67.70;;;;;;5072772;28;43349;-76
2021/12/19 06:58:05;;;;;;;0.60;0.60;;;16.60;67.90;;;;;;5072543;28;43556;-76
2021/12/19 07:00:33;;;;;;;0.60;0.60;;;16.60;68.00;;;;;;5054462;28;46018;-75
2021/12/19 07:03:01;;;;;;;0.60;0.60;;;16.60;68.00;;;;;;5072476;28;43976;-76
2021/12/19 07:05:31;;;;;;;0.60;0.60;;;16.60;68.10;;;;;;5072586;28;44041;-75
2021/12/19 07:07:59;;;;;;;0.57;0.57;;;16.60;68.20;;;;;;5054498;28;44030;-74
2021/12/19 07:10:27;;;;;;;0.70;0.70;;;16.60;68.20;;;;;;5072403;28;43953;-75
2021/12/19 07:12:55;;;;;;;0.53;0.53;;;16.50;68.10;;;;;;5072348;28;43939;-75
2021/12/19 07:15:24;;;;;;;0.77;0.77;;;16.50;68.20;;;;;;5072971;28;43932;-75
2021/12/19 07:17:52;;;;;;;0.80;0.80;;;16.60;68.40;;;;;;5054915;28;44017;-75
2021/12/19 07:20:20;;;;;;;0.70;0.70;;;16.60;68.00;;;;;;5072696;28;44204;-75
2021/12/19 07:23:03;;;;;;;0.60;0.60;;;16.80;67.60;;;;;;5072294;28;44016;-75
2021/12/19 07:25:31;;;;;;;0.60;0.60;;;17.00;67.20;;;;;;5072607;28;43994;-76
2021/12/19 07:27:59;;;;;;;0.60;0.60;;;17.10;66.70;;;;;;5070753;28;43990;-75
2021/12/19 07:30:27;;;;;;;0.60;0.60;;;17.10;66.50;;;;;;5068911;28;43845;-75
2021/12/19 07:32:57;;;;;;;0.50;0.50;;;17.00;66.40;;;;;;5068774;28;43994;-75
2021/12/19 07:35:26;;;;;;;0.70;0.70;;;17.00;66.80;;;;;;5069018;28;43375;-75
2021/12/19 07:37:56;;;;;;;0.70;0.70;;;16.90;67.00;;;;;;5044691;28;43440;-75
2021/12/19 07:40:28;;;;;;;0.60;0.60;;;16.80;67.20;;;;;;5050829;28;45743;-76
2021/12/19 07:42:58;;;;;;;0.60;0.60;;;16.80;67.40;;;;;;5061181;28;44603;-76
2021/12/19 07:45:27;;;;;;;0.60;0.60;;;16.70;67.60;;;;;;5050693;28;44070;-81
2021/12/19 07:47:55;;;;;;;0.80;0.80;;;16.70;67.80;;;;;;5069283;28;43895;-78
2021/12/19 07:50:23;;;;;;;0.70;0.70;;;16.60;67.80;;;;;;5050562;28;45895;-74
2021/12/19 07:52:51;;;;;;;0.70;0.70;;;16.60;68.00;;;;;;5049865;28;45499;-76
2021/12/19 07:55:21;;;;;;;0.70;0.70;;;16.60;68.00;;;;;;5068936;28;43960;-75
2021/12/19 07:57:49;;;;;;;0.57;0.57;;;16.60;68.10;;;;;;5068855;28;43898;-75
2021/12/19 08:00:19;;;;;;;0.80;0.80;;;16.70;67.80;;;;;;5068368;28;44075;-75
2021/12/19 08:02:47;;;;;;;0.80;0.80;;;16.80;67.50;;;;;;5068345;28;44496;-74
2021/12/19 08:05:15;;;;;;;0.57;0.57;;;16.80;67.30;;;;;;5050357;28;43484;-74
2021/12/19 08:07:46;;;;;;;0.70;0.70;;;16.80;67.50;;;;;;5050550;28;44029;-74
2021/12/19 08:10:15;;;;;;;0.57;0.57;;;16.70;67.50;;;;;;5049560;28;45529;-75
2021/12/19 08:12:43;;;;;;;0.60;0.60;;;16.70;67.70;;;;;;5068196;28;43911;-75
2021/12/19 08:15:12;;;;;;;0.60;0.60;;;16.60;67.70;;;;;;5068404;28;43976;-74
2021/12/19 08:17:44;;;;;;;0.70;0.70;;;16.60;67.90;;;;;;5068972;28;44127;-75
2021/12/19 08:20:14;;;;;;;0.83;0.83;;;16.60;68.00;;;;;;5049718;28;44390;-74
2021/12/19 08:22:42;;;;;;;0.70;0.70;;;16.60;68.10;;;;;;5067907;28;43911;-75
2021/12/19 08:25:10;;;;;;;0.77;0.77;;;16.50;68.10;;;;;;5068191;28;44006;-75
2021/12/19 08:27:38;;;;;;;0.80;0.80;;;16.50;68.10;;;;;;5050123;28;44254;-75
2021/12/19 08:30:09;;;;;;;0.80;0.80;;;16.50;68.20;;;;;;5049687;28;45744;-75
2021/12/19 08:32:38;;;;;;;0.80;0.80;;;16.50;68.20;;;;;;5049699;28;44527;-74
2021/12/19 08:35:07;;;;;;;0.83;0.83;;;16.50;68.20;;;;;;5049894;28;43372;-75
2021/12/19 08:37:35;;;;;;;0.73;0.73;;;16.60;68.30;;;;;;5068276;28;44033;-75
2021/12/19 08:40:03;;;;;;;0.90;0.90;;;16.70;67.90;;;;;;5048719;28;45442;-75
2021/12/19 08:42:35;;;;;;;0.83;0.83;;;16.80;67.40;;;;;;5067758;28;43889;-77
2021/12/19 08:45:03;;;;;;;0.90;0.90;;;17.00;67.00;;;;;;5068635;28;43782;-81
2021/12/19 08:47:33;;;;;;;0.90;0.90;;;17.00;66.50;;;;;;5068265;28;43944;-79
2021/12/19 08:50:01;;;;;;;0.80;0.80;;;17.00;66.40;;;;;;5049472;28;45645;-76
2021/12/19 08:52:30;;;;;;;0.83;0.83;;;17.00;66.60;;;;;;5067726;28;43581;-77
2021/12/19 08:54:58;;;;;;;0.90;0.90;;;16.90;66.90;;;;;;5068018;28;43796;-83
2021/12/19 08:57:29;;;;;;;1.20;1.20;;;16.80;67.00;;;;;;5050221;28;43936;-77
2021/12/19 08:59:57;;;;;;;1.20;1.20;;;16.80;67.30;;;;;;5049038;28;44227;-80
2021/12/19 09:02:25;;;;;;;1.70;1.70;;;16.70;67.50;;;;;;5049549;28;44686;-77
2021/12/19 09:04:54;;;;;;;2.77;2.67;;;16.70;67.70;;;;;;5050309;28;44044;-81
2021/12/19 09:07:32;;;;;;;4.93;4.63;;;16.60;67.70;;;;;;5068178;28;43550;-77
2021/12/19 09:10:00;;;;;;;6.00;5.50;;;16.60;67.90;;;;;;5067777;28;44047;-76
2021/12/19 09:12:28;;;;;;;7.13;6.43;;;16.60;67.90;;;;;;5067194;28;44535;-76
2021/12/19 09:14:56;;;;;;;17.03;11.40;;;16.60;68.10;;;;;;5049438;28;43905;-77
2021/12/19 09:17:24;;;;;;;27.20;21.53;;;16.60;68.10;;;;;;5049943;28;43949;-77
2021/12/19 09:19:53;;;;;;;29.03;21.70;;;16.70;67.70;;;;;;5067824;28;44022;-76
2021/12/19 09:22:21;;;;;;;37.50;27.60;;;16.80;67.20;;;;;;5049329;28;45410;-81
2021/12/19 09:25:10;;;;;;;56.60;47.83;;;16.80;67.10;;;;;;5067853;28;43875;-76
2021/12/19 09:27:38;;;;;;;53.63;43.33;;;16.80;67.20;;;;;;5067694;28;44210;-75
2021/12/19 09:30:07;;;;;;;52.33;45.00;;;16.70;67.30;;;;;;5066971;28;44976;-75
2021/12/19 09:32:35;;;;;;;45.17;36.67;;;16.70;67.40;;;;;;5048787;28;45098;-75
2021/12/19 09:35:05;;;;;;;50.67;39.60;;;16.70;67.60;;;;;;5067188;28;44009;-76
2021/12/19 09:37:35;;;;;;;39.73;32.13;;;16.70;67.80;;;;;;5067361;28;43869;-78
2021/12/19 09:40:09;;;;;;;35.00;30.83;;;16.60;67.70;;;;;;5049711;28;43874;-80
2021/12/19 09:42:46;;;;;;;34.60;27.87;;;16.60;67.80;;;;;;5067169;28;43998;-76
2021/12/19 09:45:14;;;;;;;33.93;27.03;;;16.60;67.90;;;;;;5048824;28;44027;-76
2021/12/19 09:47:42;;;;;;;31.37;24.97;;;16.60;67.90;;;;;;5049100;28;43987;-77
2021/12/19 09:50:12;;;;;;;26.40;21.93;;;16.60;68.00;;;;;;5066859;28;44023;-76
2021/12/19 09:52:40;;;;;;;24.80;21.97;;;16.60;68.00;;;;;;5064551;28;43454;-76
2021/12/19 09:55:09;;;;;;;25.77;21.93;;;16.60;68.30;;;;;;5048387;28;43975;-76
2021/12/19 09:57:37;;;;;;;29.57;22.53;;;16.70;68.10;;;;;;5058902;28;44008;-76
2021/12/19 10:00:06;;;;;;;28.07;21.80;;;16.80;68.40;;;;;;5058543;28;45799;-76
2021/12/19 10:02:40;;;;;;;26.77;22.10;;;17.00;67.30;;;;;;5057905;28;43832;-76
2021/12/19 10:05:21;;;;;;;25.80;21.50;;;17.10;66.80;;;;;;5066792;28;44049;-76
2021/12/19 10:07:51;;;;;;;25.17;21.87;;;17.10;66.50;;;;;;5067192;28;43430;-74
2021/12/19 10:10:27;;;;;;;28.17;21.50;;;17.10;66.50;;;;;;5066501;28;44020;-75
2021/12/19 10:12:57;;;;;;;26.37;21.27;;;17.00;66.70;;;;;;5066443;28;43746;-75
2021/12/19 10:15:31;;;;;;;22.83;20.43;;;16.90;67.00;;;;;;5066802;28;43373;-75
2021/12/19 10:18:01;;;;;;;24.33;21.80;;;16.90;67.40;;;;;;5048647;28;43980;-75
2021/12/19 10:20:43;;;;;;;22.67;20.13;;;16.80;67.50;;;;;;5047636;28;46667;-75
2021/12/19 10:23:11;;;;;;;23.03;20.57;;;16.70;67.60;;;;;;5048170;28;44852;-75
2021/12/19 10:25:39;;;;;;;25.60;19.47;;;16.70;67.90;;;;;;5066460;28;43912;-75
2021/12/19 10:28:09;;;;;;;22.40;19.87;;;16.60;68.00;;;;;;5066612;28;43387;-76
2021/12/19 10:30:38;;;;;;;24.10;19.10;;;16.60;68.30;;;;;;5066262;28;44809;-76
2021/12/19 10:33:07;;;;;;;22.23;19.40;;;16.60;68.40;;;;;;5047774;28;43946;-76
2021/12/19 10:35:39;;;;;;;23.80;19.53;;;16.60;68.70;;;;;;5047958;28;43946;-76
2021/12/19 10:38:12;;;;;;;23.87;18.97;;;16.60;68.50;;;;;;5047992;28;43956;-76
2021/12/19 10:40:44;;;;;;;21.47;19.17;;;16.70;68.20;;;;;;5066218;28;43994;-76
2021/12/19 10:43:16;;;;;;;19.90;17.90;;;16.70;67.40;;;;;;5066341;28;43957;-76
2021/12/19 10:45:46;;;;;;;19.27;17.17;;;16.70;67.80;;;;;;5066659;28;43982;-76
2021/12/19 10:48:23;;;;;;;19.13;17.23;;;16.70;68.50;;;;;;5066233;28;43972;-77
2021/12/19 10:50:55;;;;;;;20.73;17.60;;;16.60;68.00;;;;;;5066310;28;44825;-77
2021/12/19 10:53:29;;;;;;;18.33;16.13;;;16.60;68.00;;;;;;5031886;28;44746;-77
2021/12/19 10:55:57;;;;;;;18.37;16.33;;;16.60;68.10;;;;;;5066230;28;43997;-77
2021/12/19 10:58:31;;;;;;;17.33;15.63;;;16.60;68.20;;;;;;5065837;28;43976;-77
2021/12/19 11:01:17;;;;;;;16.43;14.77;;;16.50;68.20;;;;;;5047537;28;45716;-76
2021/12/19 11:03:48;;;;;;;16.87;15.17;;;16.50;68.10;;;;;;5067465;28;43690;-76
2021/12/19 11:06:20;;;;;;;16.70;15.00;;;16.50;68.20;;;;;;5069681;28;43951;-75
2021/12/19 11:08:50;;;;;;;16.57;14.70;;;16.50;68.40;;;;;;5070438;28;43971;-76
2021/12/19 11:11:33;;;;;;;17.60;15.47;;;16.50;68.50;;;;;;5069057;28;45146;-75
2021/12/19 11:14:02;;;;;;;19.07;14.70;;;16.50;68.90;;;;;;5050683;28;44817;-76
2021/12/19 11:16:30;;;;;;;17.37;14.90;;;16.60;69.10;;;;;;5051009;28;43949;-76
2021/12/19 11:18:58;;;;;;;17.00;14.43;;;16.70;68.70;;;;;;5069452;28;44160;-76
2021/12/19 11:21:33;;;;;;;16.70;13.77;;;16.80;68.20;;;;;;5062364;28;43914;-76
2021/12/19 11:24:02;;;;;;;14.87;13.17;;;17.00;67.90;;;;;;5061764;28;45060;-76
2021/12/19 11:26:29;;;;;;;14.23;12.90;;;17.10;68.20;;;;;;5069205;28;43897;-76
2021/12/19 11:28:59;;;;;;;15.20;13.57;;;17.10;67.00;;;;;;5051460;28;44070;-80
2021/12/19 11:31:30;;;;;;;14.67;13.00;;;17.00;67.00;;;;;;5051024;28;45602;-76
2021/12/19 11:34:06;;;;;;;15.60;12.83;;;17.00;67.50;;;;;;5050800;28;44344;-76
2021/12/19 11:36:38;;;;;;;13.63;12.20;;;16.90;67.60;;;;;;5050659;28;44066;-76
2021/12/19 11:39:07;;;;;;;14.60;13.00;;;16.90;67.80;;;;;;5069308;28;44053;-77
2021/12/19 11:41:35;;;;;;;14.60;12.67;;;16.80;67.90;;;;;;5049994;28;44140;-76
2021/12/19 11:44:07;;;;;;;12.87;11.37;;;16.70;68.00;;;;;;5050484;28;44772;-77
2021/12/19 11:46:44;;;;;;;13.20;11.80;;;16.70;68.10;;;;;;5069092;28;43979;-76
2021/12/19 11:49:15;;;;;;;13.03;11.83;;;16.70;68.30;;;;;;5069085;28;43975;-76
2021/12/19 11:51:46;;;;;;;13.00;11.60;;;16.60;68.30;;;;;;5068761;28;44034;-78
2021/12/19 11:54:15;;;;;;;14.30;12.00;;;16.60;68.70;;;;;;5050248;28;44634;-77
2021/12/19 11:57:08;;;;;;;13.00;11.30;;;16.70;68.50;;;;;;5050338;28;44012;-76
2021/12/19 11:59:38;;;;;;;12.17;11.00;;;16.80;68.10;;;;;;5068225;28;43894;-76
2021/12/19 12:02:24;;;;;;;11.97;10.73;;;16.80;67.80;;;;;;5050268;28;45643;-76
2021/12/19 12:05:22;;;;;;;13.47;10.23;;;16.80;68.10;;;;;;5068844;28;43888;-77
2021/12/19 12:08:14;;;;;;;10.93;9.93;;;16.70;68.10;;;;;;5065095;28;44030;-76
2021/12/19 12:11:09;;;;;;;10.53;9.63;;;16.70;68.40;;;;;;5068971;28;43415;-76
2021/12/19 12:13:38;;;;;;;10.90;9.73;;;16.60;68.40;;;;;;5040537;28;45394;-76
2021/12/19 12:16:36;;;;;;;10.97;9.97;;;16.60;68.50;;;;;;5050108;28;44940;-77
2021/12/19 12:19:06;;;;;;;10.20;9.30;;;16.60;68.70;;;;;;5062646;28;43522;-76
2021/12/19 12:21:40;;;;;;;10.43;9.43;;;16.60;68.70;;;;;;5068500;28;43897;-75
2021/12/19 12:24:17;;;;;;;9.60;8.70;;;16.50;68.70;;;;;;5049684;28;45781;-77
2021/12/19 12:26:58;;;;;;;11.53;8.97;;;16.50;68.80;;;;;;5068863;28;43979;-76
2021/12/19 12:29:26;;;;;;;9.63;8.83;;;16.50;68.80;;;;;;5068103;28;44066;-76
2021/12/19 12:31:54;;;;;;;9.10;8.23;;;16.50;68.80;;;;;;5068879;28;43841;-76
2021/12/19 12:34:22;;;;;;;9.13;8.43;;;16.60;69.00;;;;;;5050144;28;44811;-76
2021/12/19 12:36:51;;;;;;;9.43;8.53;;;16.70;68.70;;;;;;5050095;28;44753;-76
2021/12/19 12:39:25;;;;;;;9.00;8.20;;;16.80;68.20;;;;;;5049751;28;43420;-77
2021/12/19 12:41:59;;;;;;;9.60;8.53;;;17.00;67.70;;;;;;5068881;28;44015;-76
2021/12/19 12:44:28;;;;;;;9.03;8.23;;;17.00;67.20;;;;;;5059898;28;45747;-75
2021/12/19 12:46:56;;;;;;;8.10;7.40;;;17.00;67.00;;;;;;5061526;28;43988;-77
2021/12/19 12:49:25;;;;;;;7.87;7.23;;;17.00;67.30;;;;;;5061566;28;43916;-76
2021/12/19 12:52:01;;;;;;;7.83;7.13;;;16.90;67.50;;;;;;5061894;28;44198;-76
2021/12/19 12:54:36;;;;;;;8.23;7.63;;;16.80;67.60;;;;;;5049249;28;44037;-76
2021/12/19 12:57:05;;;;;;;8.63;7.83;;;16.80;67.90;;;;;;5068038;28;43884;-76
2021/12/19 12:59:36;;;;;;;7.53;6.93;;;16.70;68.00;;;;;;5067265;28;44018;-76
2021/12/19 13:02:11;;;;;;;7.67;7.07;;;16.70;68.20;;;;;;5068190;28;43919;-76
2021/12/19 13:04:39;;;;;;;7.60;6.97;;;16.70;68.20;;;;;;5049183;28;45667;-76
2021/12/19 13:07:09;;;;;;;8.17;7.47;;;16.60;68.30;;;;;;5067451;28;44079;-75
2021/12/19 13:09:40;;;;;;;7.50;6.90;;;16.60;68.30;;;;;;5048998;28;43952;-76
2021/12/19 13:12:11;;;;;;;7.63;6.97;;;16.60;68.60;;;;;;5049669;28;43538;-76
2021/12/19 13:14:40;;;;;;;7.60;6.97;;;16.70;68.50;;;;;;5067691;28;43968;-76
2021/12/19 13:17:09;;;;;;;6.93;6.37;;;16.80;68.10;;;;;;5067042;28;43980;-76
2021/12/19 13:19:42;;;;;;;6.80;6.30;;;16.80;67.70;;;;;;5067350;28;43469;-76
2021/12/19 13:22:11;;;;;;;6.77;6.27;;;16.80;67.70;;;;;;5049347;28;44121;-76
2021/12/19 13:24:41;;;;;;;7.23;6.60;;;16.80;67.90;;;;;;5048605;28;44003;-76
2021/12/19 13:27:11;;;;;;;6.57;6.07;;;16.80;68.00;;;;;;5047593;28;44676;-76
2021/12/19 13:29:39;;;;;;;6.17;5.77;;;16.70;68.00;;;;;;5060966;28;44065;-77
2021/12/19 13:32:21;;;;;;;6.73;6.23;;;16.70;68.20;;;;;;5061116;28;44206;-76
2021/12/19 13:34:49;;;;;;;6.93;6.40;;;16.60;68.30;;;;;;5067204;28;43599;-75
2021/12/19 13:37:17;;;;;;;6.37;5.97;;;16.60;68.40;;;;;;5066630;28;43964;-76
2021/12/19 13:39:58;;;;;;;6.77;6.27;;;16.60;68.50;;;;;;5067049;28;43963;-76
2021/12/19 13:42:40;;;;;;;6.73;6.23;;;16.60;68.60;;;;;;5067554;28;43905;-76
2021/12/19 13:45:30;;;;;;;6.53;5.97;;;16.50;68.60;;;;;;5067116;28;43737;-76